This is the latest recevied weather packets stored in our database for station/object KE2GQQ. If no packets are shown the sender has not sent any weather packets the latest 10 day(s).
| Time | Temp. | Humidity | Pressure | Rain* | Wind** | Luminosity | Snow |
|---|---|---|---|---|---|---|---|
| 1777779616 | 10° C | 66% | 1010.9 hPa | 0 mm | - | 0 W/m² | - |
| 1777777216 | 10.56° C | 61% | 1010.9 hPa | 0 mm | - | 0 W/m² | - |
| 1777773017 | 11.11° C | 59% | 1011 hPa | 0 mm | - | 0 W/m² | - |
| 1777767615 | 11.67° C | 65% | 1010.4 hPa | 0 mm | - | 0 W/m² | - |
| 1777765216 | 13.33° C | 62% | 1010.1 hPa | 0 mm | - | 5 W/m² | - |
| 1777763416 | 15° C | 54% | 1009.9 hPa | 0 mm | - | 17 W/m² | - |
| 1777760417 | 16.11° C | 46% | 1009.7 hPa | 0 mm | - | 143 W/m² | - |
| 1777755618 | 15° C | 56% | 1009.5 hPa | 0 mm | - | 67 W/m² | - |
| 1777748417 | 15.56° C | 53% | 1010.7 hPa | 0 mm | - | 206 W/m² | - |
| 1777737037 | 13.33° C | 71% | 1011.9 hPa | 0 mm | - | 137 W/m² | - |
| 1777735218 | 12.78° C | 73% | 1011.9 hPa | 0 mm | - | 149 W/m² | - |
| 1777734618 | 12.78° C | 75% | 1012 hPa | 0 mm | - | 111 W/m² | - |
| 1777728616 | 12.22° C | 78% | 1012.3 hPa | 0 mm | - | 182 W/m² | - |
| 1777726217 | 11.11° C | 83% | 1012.3 hPa | 0 mm | - | 130 W/m² | - |
| 1777725617 | 11.11° C | 85% | 1012.3 hPa | 0 mm | - | 99 W/m² | - |
| 1777723818 | 10.56° C | 89% | 1012 hPa | 0 mm | - | 46 W/m² | - |
| 1777720816 | 10° C | 92% | 1012.1 hPa | 0.25 mm | - | 41 W/m² | - |
| 1777720236 | 10° C | 92% | 1012 hPa | 0.25 mm | - | 36 W/m² | - |
| 1777713617 | 11.11° C | 79% | 1011.6 hPa | 0 mm | - | 0 W/m² | - |
| 1777713018 | 11.11° C | 78% | 1011.4 hPa | 0 mm | - | 0 W/m² | - |
| 1777698618 | 11.11° C | 79% | 1011.7 hPa | 0 mm | - | 0 W/m² | - |
| 1777686036 | 11.11° C | 73% | 1012 hPa | 0 mm | - | 0 W/m² | - |
| 1777681816 | 12.22° C | 68% | 1011.6 hPa | 0 mm | - | 0 W/m² | - |
| 1777681216 | 12.22° C | 67% | 1011.5 hPa | 0 mm | - | 0 W/m² | - |
| 1777677618 | 12.78° C | 64% | 1011 hPa | 0 mm | - | 10 W/m² | - |
* Rain latest hour (hover to see other rain measurements)
** Current wind speed in m/s (hover to see current wind gust speed)